Latest Weather Observations for Pirlangimpi

IDD60801

Issued at 8:31 am CST Saturday 20 December 2014 (issued every 30 minutes, with the page automatically refreshed every 10 minutes)

About weather observations | Map of weather stations | Latest weather observations for NT | Other Formats
Station Details ID: 014142 Name: PIRLANGIMPI AIRPORT Lat: -11.40 Lon: 130.42 Height: 18.3 m
Data from the previous 72 hours. | See also: Recent months at Pirlangimpi
Date/Time
CST
Temp
°C
App
Temp
°C
Dew
Point
Rel
Hum
%
Delta-T
°C
Wind Press
QNH
hPa
Press
MSL
hPa
Rain
since 9 am
mm
Dir
 
Spd
km/h
Gust
km/h
Spd
kts
Gust
kts
20/08:30am 30.1 37.1 26.5 81 2.6 W 2 4 1 2 1010.1 1010.0 0.2
20/08:00am 29.2 36.7 26.6 86 1.9 CALM 0 2 0 1 1009.9 1009.8 0.2
20/07:30am 28.1 35.1 26.5 91 1.1 SSW 2 7 1 4 1010.0 1009.9 0.2
20/07:00am 27.3 34.3 25.9 92 1.0 CALM 0 0 0 0 1009.8 1009.7 0.2
20/06:30am 27.1 33.6 25.7 92 1.0 SSE 2 6 1 3 1009.5 1009.4 0.2
20/06:00am 27.7 34.2 25.7 89 1.4 SW 2 4 1 2 1009.0 1008.9 0.2
20/05:30am 27.9 34.6 25.9 89 1.4 WNW 2 6 1 3 1008.2 1008.1 0.2
20/05:00am 27.6 34.2 25.8 90 1.3 NW 2 4 1 2 1008.0 1007.9 0.2
20/04:30am 27.8 34.4 25.8 89 1.4 WNW 2 4 1 2 1008.1 1008.0 0.2
20/04:00am 27.7 34.4 25.9 90 1.3 NW 2 6 1 3 1008.2 1008.1 0.2
20/03:30am 27.7 34.4 25.9 90 1.3 NW 2 6 1 3 1008.4 1008.3 0.2
20/03:00am 27.3 34.0 25.9 92 1.0 NNW 2 4 1 2 1008.5 1008.4 0.2
20/02:30am 27.3 34.1 26.1 93 0.9 NNW 2 4 1 2 1008.4 1008.3 0.2
20/02:00am 27.2 33.9 26.0 93 0.8 NNW 2 6 1 3 1008.5 1008.4 0.2
20/01:30am 27.2 34.4 26.1 94 0.8 CALM 0 0 0 0 1008.8 1008.7 0.2
20/01:00am 27.2 34.3 26.0 93 0.8 CALM 0 0 0 0 1009.8 1009.7 0.2
20/12:30am 27.2 34.0 25.6 91 1.1 CALM 0 0 0 0 1010.3 1010.2 0.2
20/12:00am 27.6 34.7 26.0 91 1.1 CALM 0 0 0 0 1010.7 1010.6 0.2
 
Date/Time
CST
Temp
°C
App
Temp
°C
Dew
Point
Rel
Hum
%
Delta-T
°C
Wind Press
QNH
hPa
Press
MSL
hPa
Rain
since 9 am
mm
Dir
 
Spd
km/h
Gust
km/h
Spd
kts
Gust
kts
19/11:30pm 27.9 34.6 25.9 89 1.4 NE 2 4 1 2 1010.8 1010.7 0.2
19/11:00pm 28.4 35.9 26.6 90 1.3 CALM 0 2 0 1 1010.7 1010.6 0.2
19/10:30pm 28.4 35.5 26.6 90 1.3 NNW 2 7 1 4 1010.2 1010.1 0.2
19/10:00pm 27.9 35.2 26.3 91 1.1 CALM 0 0 0 0 1010.0 1009.9 0.2
19/09:30pm 27.5 34.5 25.9 91 1.1 CALM 0 0 0 0 1009.7 1009.6 0.2
19/09:00pm 27.5 34.0 25.7 90 1.3 NE 2 4 1 2 1009.3 1009.2 0.2
19/08:30pm 28.1 35.3 26.1 89 1.4 CALM 0 2 0 1 1009.1 1009.0 0.2
19/08:00pm 28.6 35.7 26.0 86 1.8 CALM 0 2 0 1 1009.1 1009.0 0.2
19/07:30pm 29.1 36.3 26.1 84 2.1 CALM 0 6 0 3 1008.6 1008.5 0.2
19/07:00pm 29.9 35.7 25.2 76 3.3 W 4 7 2 4 1007.9 1007.8 0.2
19/06:30pm 30.3 36.3 26.0 78 3.1 NW 6 11 3 6 1007.2 1007.1 0.2
19/06:00pm 29.6 36.3 26.0 81 2.6 NW 2 7 1 4 1006.6 1006.5 0.2
19/05:30pm 29.2 35.1 25.4 80 2.7 NNE 4 7 2 4 1006.5 1006.4 0.2
19/05:00pm 30.1 35.5 25.2 75 3.5 NNE 6 9 3 5 1007.3 1007.2 0.2
19/04:30pm 31.1 36.4 25.2 71 4.2 N 7 13 4 7 1007.1 1007.0 0.2
19/04:00pm 34.5 40.0 26.7 64 5.6 NW 11 26 6 14 1007.1 1007.0 0.2
19/03:30pm 34.0 38.8 26.2 63 5.6 NNW 13 26 7 14 1007.3 1007.2 0.2
19/03:00pm 33.5 38.3 26.3 66 5.2 NW 13 24 7 13 1007.8 1007.7 0.2
19/02:30pm 34.6 39.6 26.5 62 5.9 NNW 13 20 7 11 1008.4 1008.3 0.2
19/02:00pm 34.0 39.7 26.5 65 5.4 NNW 9 19 5 10 1008.8 1008.7 0.2
19/01:30pm 33.5 39.9 27.0 69 4.7 N 7 15 4 8 1009.1 1009.0 0.2
19/01:00pm 33.7 38.6 25.9 63 5.6 NW 11 17 6 9 1009.2 1009.1 0.2
19/12:30pm 34.0 40.3 25.9 62 5.8 W 4 6 2 3 1009.7 1009.6 0.2
19/12:00pm 34.3 39.7 24.5 56 6.9 S 4 7 2 4 1010.0 1009.9 0.2
19/11:30am 32.9 39.6 25.9 66 5.0 WNW 2 6 1 3 1010.3 1010.2 0.2
19/11:00am 32.5 38.0 25.3 66 5.1 W 6 9 3 5 1010.6 1010.5 0.2
19/10:30am 32.7 39.4 26.0 68 4.8 W 2 6 1 3 1010.8 1010.7 0.2
19/10:00am 31.9 37.6 25.0 67 4.9 WNW 4 7 2 4 1010.8 1010.7 0.2
19/09:30am 31.6 38.5 26.8 75 3.5 WNW 4 9 2 5 1010.8 1010.7 0.0
19/09:00am 31.0 37.9 26.3 76 3.4 W 2 4 1 2 1010.9 1010.8 9.4
19/08:30am 29.9 37.6 26.9 84 2.2 CALM 0 0 0 0 1010.7 1010.6 9.4
19/08:00am 28.2 36.0 27.0 93 0.9 CALM 0 4 0 2 1010.4 1010.3 9.4
19/07:30am 27.4 35.2 27.1 98 0.2 CALM 0 2 0 1 1010.4 1010.3 9.4
19/07:00am 26.5 32.8 26.0 97 0.4 NE 4 6 2 3 1010.2 1010.1 9.4
19/06:30am 26.0 31.9 25.3 96 0.5 NE 4 6 2 3 1009.7 1009.6 9.4
19/06:00am 26.0 31.9 25.3 96 0.5 ENE 4 4 2 2 1009.2 1009.1 9.4
19/05:30am 26.1 32.7 25.2 95 0.6 CALM 0 4 0 2 1008.9 1008.8 9.4
19/05:00am 26.3 33.1 25.6 96 0.5 CALM 0 0 0 0 1008.7 1008.6 9.4
19/04:30am 26.2 32.8 25.3 95 0.6 CALM 0 0 0 0 1008.6 1008.5 9.4
19/04:00am 26.2 32.8 25.3 95 0.6 CALM 0 0 0 0 1008.7 1008.6 9.4
19/03:30am 26.3 32.6 25.4 95 0.6 NE 2 2 1 1 1008.8 1008.7 9.4
19/03:00am 26.3 33.0 25.4 95 0.6 CALM 0 0 0 0 1008.7 1008.6 9.4
19/02:30am 26.3 33.0 25.4 95 0.6 CALM 0 0 0 0 1008.9 1008.8 9.4
19/02:00am 26.3 33.0 25.4 95 0.6 CALM 0 0 0 0 1009.1 1009.0 9.4
19/01:30am 26.4 33.2 25.5 95 0.6 CALM 0 0 0 0 1009.1 1009.0 9.4
19/01:00am 26.4 33.1 25.4 94 0.7 CALM 0 0 0 0 1009.4 1009.3 9.4
19/12:30am 26.5 33.3 25.5 94 0.7 CALM 0 0 0 0 1009.6 1009.5 9.4
19/12:00am 26.6 33.1 25.6 94 0.7 ENE 2 4 1 2 1009.6 1009.5 9.4
 
Date/Time
CST
Temp
°C
App
Temp
°C
Dew
Point
Rel
Hum
%
Delta-T
°C
Wind Press
QNH
hPa
Press
MSL
hPa
Rain
since 9 am
mm
Dir
 
Spd
km/h
Gust
km/h
Spd
kts
Gust
kts
18/11:30pm 26.7 33.6 25.7 94 0.7 CALM 0 0 0 0 1009.7 1009.6 9.4
18/11:00pm 26.7 33.6 25.7 94 0.7 CALM 0 2 0 1 1009.5 1009.4 9.4
18/10:30pm 26.6 33.3 25.4 93 0.8 CALM 0 0 0 0 1009.1 1009.0 9.4
18/10:00pm 26.9 33.4 25.7 93 0.8 NE 2 6 1 3 1009.3 1009.2 9.4
18/09:30pm 27.1 34.1 25.9 93 0.8 CALM 0 0 0 0 1009.1 1009.0 9.4
18/09:00pm 27.1 34.1 25.9 93 0.8 CALM 0 4 0 2 1009.2 1009.1 9.4
18/08:30pm 27.2 34.2 25.8 92 1.0 CALM 0 0 0 0 1009.0 1008.9 9.4
18/08:00pm 27.4 34.2 25.6 90 1.3 CALM 0 0 0 0 1008.5 1008.4 9.4
18/07:30pm 27.5 34.3 25.5 89 1.4 CALM 0 0 0 0 1008.0 1007.9 9.4
18/07:00pm 27.9 34.4 25.1 85 2.0 CALM 0 0 0 0 1007.5 1007.4 9.4
18/06:30pm 28.5 35.4 25.7 85 2.0 CALM 0 2 0 1 1007.3 1007.2 9.4
18/06:00pm 28.6 35.1 25.6 84 2.1 NE 2 6 1 3 1007.2 1007.1 9.4
18/05:30pm 28.3 35.1 25.5 85 2.0 CALM 0 4 0 2 1006.8 1006.7 9.4
18/05:00pm 27.9 34.0 25.1 85 2.0 N 2 4 1 2 1006.8 1006.7 9.4
18/04:30pm 27.7 33.6 25.3 87 1.7 NE 4 6 2 3 1007.1 1007.0 9.4
18/04:00pm 27.9 33.9 25.5 87 1.7 NNW 4 9 2 5 1007.4 1007.3 9.4
18/03:30pm 27.9 33.4 25.3 86 1.8 W 6 9 3 5 1008.0 1007.9 9.4
18/03:00pm 27.8 32.4 24.8 84 2.1 WSW 9 17 5 9 1008.2 1008.1 9.2
18/02:30pm 28.8 33.8 26.0 85 2.0 SSW 11 20 6 11 1008.2 1008.1 9.2
18/02:00pm 30.4 36.5 25.7 76 3.3 NW 4 15 2 8 1008.5 1008.4 1.0
18/01:30pm 32.8 37.6 25.1 64 5.5 NW 9 17 5 9 1008.6 1008.5 0.0
18/01:00pm 35.2 40.6 27.1 63 5.9 NNW 13 20 7 11 1008.7 1008.6 0.0
18/12:30pm 34.1 39.7 26.3 64 5.6 NW 9 17 5 9 1009.4 1009.3 0.0
18/12:00pm 32.9 38.2 25.9 66 5.0 NW 9 19 5 10 1009.6 1009.5 0.0
18/11:30am 33.7 40.3 27.2 69 4.7 NW 7 17 4 9 1010.1 1010.0 0.0
18/11:00am 31.5 37.1 25.8 72 4.1 NW 7 13 4 7 1010.3 1010.2 0.0
18/10:30am 31.4 37.4 26.4 75 3.6 NNW 7 13 4 7 1010.2 1010.1 0.0
18/10:00am 31.3 37.6 26.8 77 3.2 NNW 7 15 4 8 1010.1 1010.0 0.0
18/09:30am 30.4 36.3 25.9 77 3.2 NW 6 11 3 6 1009.9 1009.8 0.0
18/09:00am 30.6 37.3 25.9 76 3.3 WSW 2 6 1 3 1009.7 1009.6 0.0
18/08:30am 30.8 38.5 26.9 80 2.8 CALM 0 4 0 2 1009.5 1009.4 0.0
18/08:00am 28.6 36.4 27.0 91 1.1 CALM 0 2 0 1 1009.3 1009.2 0.0
18/07:30am 27.6 34.6 26.5 94 0.8 NNE 2 4 1 2 1009.2 1009.1 0.0
18/07:00am 26.8 33.8 25.8 94 0.7 CALM 0 0 0 0 1008.7 1008.6 0.0
18/06:30am 26.6 33.3 25.4 93 0.8 CALM 0 0 0 0 1008.3 1008.2 0.0
18/06:00am 26.6 33.3 25.4 93 0.8 CALM 0 0 0 0 1007.5 1007.4 0.0
18/05:30am 26.8 33.6 25.6 93 0.8 CALM 0 0 0 0 1007.2 1007.1 0.0
18/05:00am 26.8 33.6 25.6 93 0.8 CALM 0 2 0 1 1006.8 1006.7 0.0
18/04:30am 26.9 33.8 25.7 93 0.8 CALM 0 0 0 0 1006.4 1006.3 0.0
18/04:00am 26.9 33.4 25.7 93 0.8 NNW 2 4 1 2 1006.2 1006.1 0.0
18/03:30am 26.9 33.0 25.7 93 0.8 NNE 4 6 2 3 1006.5 1006.4 0.0
18/03:00am 27.1 33.8 25.9 93 0.8 NE 2 4 1 2 1006.5 1006.4 0.0
18/02:30am 26.9 33.0 25.7 93 0.8 N 4 6 2 3 1006.3 1006.2 0.0
18/02:00am 27.1 33.5 25.5 91 1.1 SW 2 2 1 1 1006.4 1006.3 0.0
18/01:30am 27.4 34.4 25.8 91 1.1 CALM 0 0 0 0 1007.0 1006.9 0.0
18/01:00am 27.6 34.7 26.0 91 1.1 CALM 0 0 0 0 1007.4 1007.3 0.0
18/12:30am 27.9 34.6 25.9 89 1.4 SW 2 6 1 3 1007.8 1007.7 0.0
18/12:00am 27.8 34.6 25.6 88 1.6 CALM 0 0 0 0 1008.1 1008.0 0.0
 
Date/Time
CST
Temp
°C
App
Temp
°C
Dew
Point
Rel
Hum
%
Delta-T
°C
Wind Press
QNH
hPa
Press
MSL
hPa
Rain
since 9 am
mm
Dir
 
Spd
km/h
Gust
km/h
Spd
kts
Gust
kts
17/11:30pm 28.3 34.8 25.7 86 1.8 NW 2 4 1 2 1008.1 1008.0 0.0
17/11:00pm 28.6 35.3 26.0 86 1.8 WSW 2 6 1 3 1008.4 1008.3 0.0
17/10:30pm 28.4 35.0 25.8 86 1.8 W 2 4 1 2 1008.2 1008.1 0.0
17/10:00pm 28.4 34.9 25.6 85 2.0 W 2 6 1 3 1008.6 1008.5 0.0
17/09:30pm 28.6 35.1 25.6 84 2.1 W 2 4 1 2 1008.6 1008.5 0.0
17/09:00pm 29.1 35.5 25.5 81 2.5 WSW 2 4 1 2 1008.5 1008.4 0.0
17/08:30pm 29.4 35.7 25.4 79 2.8 WSW 2 4 1 2 1008.2 1008.1 0.0
17/08:00pm 29.6 35.5 25.4 78 3.0 W 4 7 2 4 1007.7 1007.6 0.0
17/07:30pm 29.9 35.6 25.0 75 3.4 WNW 4 6 2 3 1006.9 1006.8 0.0
17/07:00pm 30.4 36.1 25.0 73 3.8 W 4 9 2 5 1006.6 1006.5 0.0
17/06:30pm 30.7 36.7 26.0 76 3.4 NW 6 11 3 6 1006.0 1005.9 0.0
17/06:00pm 31.1 36.7 25.4 71 4.0 NW 6 13 3 7 1005.2 1005.1 0.0
17/05:30pm 31.3 36.9 25.4 71 4.2 NW 6 15 3 8 1005.2 1005.1 0.0
17/05:00pm 31.8 37.8 26.4 73 3.9 NW 7 17 4 9 1005.5 1005.4 0.0
17/04:30pm 31.9 37.0 25.5 69 4.6 NW 9 19 5 10 1005.3 1005.2 0.0
17/04:00pm 33.0 37.9 25.8 66 5.1 NW 11 19 6 10 1004.8 1004.7 0.0
17/03:30pm 34.2 38.9 26.7 65 5.4 NW 15 22 8 12 1005.2 1005.1 0.0
17/03:00pm 34.4 40.0 26.9 65 5.4 NW 11 24 6 13 1005.5 1005.4 0.0
17/02:30pm 34.2 39.7 26.7 65 5.4 NNW 11 20 6 11 1006.1 1006.0 0.0
17/02:00pm 34.0 39.7 26.5 65 5.4 NW 9 19 5 10 1006.7 1006.6 0.0
17/01:30pm 33.8 39.9 27.1 68 4.9 NW 9 17 5 9 1007.0 1006.9 0.0
17/01:00pm 33.4 39.1 26.4 66 5.0 NW 9 19 5 10 1007.3 1007.2 0.0
17/12:30pm 33.7 39.5 27.2 69 4.7 NNW 11 20 6 11 1007.6 1007.5 0.0
17/12:00pm 33.2 38.2 26.5 68 4.8 NW 13 22 7 12 1007.7 1007.6 0.0
17/11:30am 32.9 39.1 27.2 72 4.1 NW 9 17 5 9 1008.3 1008.2 0.0
17/11:00am 32.0 37.3 25.8 69 4.4 NNW 9 15 5 8 1008.9 1008.8 0.0
17/10:30am 32.3 38.1 26.1 70 4.4 NW 7 13 4 7 1008.8 1008.7 0.0
17/10:00am 32.6 38.5 26.2 69 4.6 NW 7 13 4 7 1008.9 1008.8 0.0
17/09:30am 32.1 37.7 25.7 69 4.6 NNW 7 15 4 8 1008.6 1008.5 0.0
17/09:00am 31.7 38.0 26.5 74 3.7 NW 6 11 3 6 1008.3 1008.2 0.2

Other Formats:

Comma delimited format used in spreadsheet applications
http://www.bom.gov.au/fwo/IDD60801/IDD60801.94119.axf

JavaScript Object Notation format (JSON) in row-major order
http://www.bom.gov.au/fwo/IDD60801/IDD60801.94119.json